createdAt,value
2018-12-03T00:01:33.319Z,99552.34
2018-12-03T00:04:21.039Z,99547.61
2018-12-03T00:06:49.655Z,99546.79
2018-12-03T00:09:18.223Z,99543.87
2018-12-03T00:11:46.906Z,99540.72
2018-12-03T00:14:15.343Z,99539.30
2018-12-03T00:16:44.331Z,99532.99
2018-12-03T00:19:12.962Z,99540.42
2018-12-03T00:21:42.295Z,99543.12
2018-12-03T00:24:10.738Z,99539.59
2018-12-03T00:26:39.628Z,99536.89
2018-12-03T00:29:08.104Z,99538.63
2018-12-03T00:31:36.539Z,99545.00
2018-12-03T00:34:05.034Z,99528.95
2018-12-03T00:36:33.508Z,99533.89
2018-12-03T00:39:02.051Z,99533.37
2018-12-03T00:41:30.806Z,99530.52
2018-12-03T00:43:59.459Z,99528.42
2018-12-03T00:46:27.967Z,99521.00
2018-12-03T00:48:56.427Z,99535.92
2018-12-03T00:51:24.919Z,99536.14
2018-12-03T00:53:53.451Z,99526.63
2018-12-03T00:56:21.908Z,99526.25
2018-12-03T00:58:50.365Z,99533.52
2018-12-03T01:01:18.856Z,99533.45
2018-12-03T01:03:47.375Z,99531.57
2018-12-03T01:06:15.819Z,99538.55
2018-12-03T01:08:44.340Z,99542.97
2018-12-03T01:11:12.815Z,99539.14
2018-12-03T01:13:41.315Z,99541.24
2018-12-03T01:16:09.786Z,99546.59
2018-12-03T01:18:38.195Z,99545.38
2018-12-03T01:21:06.695Z,99541.20
2018-12-03T01:23:35.187Z,99545.02
2018-12-03T01:26:03.691Z,99530.59
2018-12-03T01:28:32.131Z,99535.13
2018-12-03T01:31:00.535Z,99536.09
2018-12-03T01:33:29.056Z,99537.49
2018-12-03T01:35:58.270Z,99536.47
2018-12-03T01:38:26.671Z,99539.77
2018-12-03T01:40:55.848Z,99532.95
2018-12-03T01:43:24.536Z,99537.67
2018-12-03T01:45:53.194Z,99536.77
2018-12-03T01:48:21.685Z,99534.30
2018-12-03T01:50:50.105Z,99534.67
2018-12-03T01:53:19.023Z,99533.17
2018-12-03T01:55:47.542Z,99537.89
2018-12-03T01:58:16.087Z,99539.91
2018-12-03T02:00:44.571Z,99532.20
2018-12-03T02:03:13.440Z,99534.52
2018-12-03T02:05:42.795Z,99538.34
2018-12-03T02:08:11.279Z,99526.93
2018-12-03T02:10:40.015Z,99532.03
2018-12-03T02:13:08.499Z,99530.98
2018-12-03T02:15:36.999Z,99540.28
2018-12-03T02:18:06.308Z,99536.45
2018-12-03T02:20:34.816Z,99529.17
2018-12-03T02:23:03.300Z,99524.81
2018-12-03T02:25:31.743Z,99527.22
2018-12-03T02:28:00.215Z,99530.14
2018-12-03T02:30:28.664Z,99519.03
2018-12-03T02:32:57.162Z,99517.01
2018-12-03T02:35:25.878Z,99525.70
2018-12-03T02:37:54.264Z,99516.75
2018-12-03T02:40:22.715Z,99517.36
2018-12-03T02:42:51.143Z,99509.62
2018-12-03T02:45:19.583Z,99514.13
2018-12-03T02:47:48.136Z,99511.28
2018-12-03T02:50:16.867Z,99508.20
2018-12-03T02:52:45.284Z,99510.22
2018-12-03T02:55:14.479Z,99508.04
2018-12-03T02:57:43.024Z,99506.31
2018-12-03T03:00:13.121Z,99500.22
2018-12-03T03:02:42.035Z,99494.95
2018-12-03T03:05:11.787Z,99485.48
2018-12-03T03:07:40.481Z,99487.67
2018-12-03T03:10:11.224Z,99483.69
2018-12-03T03:12:39.853Z,99490.44
2018-12-03T03:15:11.487Z,99485.41
2018-12-03T03:17:40.420Z,99482.20
2018-12-03T03:20:11.071Z,99481.20
2018-12-03T03:22:39.540Z,99492.33
2018-12-03T03:25:09.043Z,99483.15
2018-12-03T03:27:38.433Z,99479.48
2018-12-03T03:30:10.784Z,99473.77
2018-12-03T03:32:39.287Z,99477.30
2018-12-03T03:35:09.111Z,99466.52
2018-12-03T03:37:37.829Z,99470.17
2018-12-03T03:40:12.526Z,99462.20
2018-12-03T03:42:41.785Z,99464.09
2018-12-03T03:45:16.751Z,99468.53
2018-12-03T03:47:46.010Z,99452.68
2018-12-03T03:50:14.851Z,99458.85
2018-12-03T03:52:43.887Z,99463.58
2018-12-03T03:55:12.298Z,99455.77
2018-12-03T03:57:40.807Z,99457.50
2018-12-03T04:00:10.978Z,99459.80
2018-12-03T04:02:40.262Z,99457.63
2018-12-03T04:05:10.228Z,99460.09
2018-12-03T04:07:38.927Z,99452.14
2018-12-03T04:10:09.210Z,99452.89
2018-12-03T04:12:37.614Z,99456.27
2018-12-03T04:15:08.269Z,99455.89
2018-12-03T04:17:37.000Z,99449.59
2018-12-03T04:20:09.038Z,99450.58
2018-12-03T04:22:37.420Z,99451.61
2018-12-03T04:25:07.412Z,99449.59
2018-12-03T04:27:36.131Z,99450.17
2018-12-03T04:30:07.498Z,99452.73
2018-12-03T04:32:35.959Z,99453.55
2018-12-03T04:35:04.728Z,99455.11
2018-12-03T04:37:33.136Z,99451.00
2018-12-03T04:40:01.616Z,99458.36
2018-12-03T04:42:30.043Z,99458.20
2018-12-03T04:44:58.529Z,99449.47
2018-12-03T04:47:26.990Z,99460.13
2018-12-03T04:49:55.503Z,99459.55
2018-12-03T04:52:24.119Z,99444.28
2018-12-03T04:54:52.955Z,99441.42
2018-12-03T04:57:22.336Z,99443.06
2018-12-03T04:59:50.743Z,99441.22
2018-12-03T05:02:19.162Z,99444.44
2018-12-03T05:04:47.611Z,99429.19
2018-12-03T05:07:16.105Z,99436.15
2018-12-03T05:09:44.559Z,99430.22
2018-12-03T05:12:13.327Z,99426.22
2018-12-03T05:14:41.788Z,99423.13
2018-12-03T05:17:11.519Z,99422.95
2018-12-03T05:19:40.000Z,99421.34
2018-12-03T05:22:08.405Z,99424.69
2018-12-03T05:24:36.903Z,99417.68
2018-12-03T05:27:06.455Z,99425.43
2018-12-03T05:29:34.851Z,99413.65
2018-12-03T05:32:03.279Z,99407.80
2018-12-03T05:34:31.724Z,99409.53
2018-12-03T05:37:00.127Z,99406.81
2018-12-03T05:39:28.605Z,99412.20
2018-12-03T05:41:57.091Z,99403.34
2018-12-03T05:44:26.275Z,99408.74
2018-12-03T05:46:55.371Z,99415.30
2018-12-03T05:49:23.743Z,99409.91
2018-12-03T05:51:52.142Z,99410.89
2018-12-03T05:54:20.611Z,99418.11
2018-12-03T05:56:49.021Z,99410.61
2018-12-03T05:59:17.531Z,99419.92
2018-12-03T06:01:45.982Z,99426.47
2018-12-03T06:04:14.432Z,99415.89
2018-12-03T06:06:42.938Z,99414.08
2018-12-03T06:09:11.423Z,99413.50
2018-12-03T06:11:39.899Z,99407.48
2018-12-03T06:14:09.147Z,99418.16
2018-12-03T06:16:37.619Z,99410.20
2018-12-03T06:19:06.589Z,99411.31
2018-12-03T06:21:35.199Z,99410.80
2018-12-03T06:24:03.617Z,99416.59
2018-12-03T06:26:31.979Z,99418.91
2018-12-03T06:29:00.403Z,99415.23
2018-12-03T06:31:28.818Z,99415.08
2018-12-03T06:33:57.526Z,99417.63
2018-12-03T06:36:25.916Z,99418.91
2018-12-03T06:38:54.437Z,99431.39
2018-12-03T06:41:22.851Z,99430.73
2018-12-03T06:43:51.445Z,99425.62
2018-12-03T06:46:19.831Z,99426.16
2018-12-03T06:48:48.495Z,99428.77
2018-12-03T06:51:17.042Z,99427.80
2018-12-03T06:53:45.699Z,99424.94
2018-12-03T06:56:14.374Z,99421.52
2018-12-03T06:58:42.779Z,99417.40
2018-12-03T07:01:11.236Z,99422.13
2018-12-03T07:03:39.663Z,99440.41
2018-12-03T07:06:08.118Z,99439.66
2018-12-03T07:08:36.620Z,99436.81
2018-12-03T07:11:05.586Z,99434.19
2018-12-03T07:13:34.078Z,99437.43
2018-12-03T07:16:02.617Z,99445.45
2018-12-03T07:18:31.429Z,99440.36
2018-12-03T07:20:59.843Z,99445.78
2018-12-03T07:23:28.776Z,99448.17
2018-12-03T07:25:57.311Z,99454.02
2018-12-03T07:28:25.867Z,99458.46
2018-12-03T07:30:54.515Z,99450.88
2018-12-03T07:33:23.080Z,99448.81
2018-12-03T07:35:52.191Z,99451.58
2018-12-03T07:38:20.695Z,99454.34
2018-12-03T07:40:49.396Z,99444.66
2018-12-03T07:43:18.505Z,99447.16
2018-12-03T07:45:47.015Z,99461.80
2018-12-03T07:48:15.507Z,99453.09
2018-12-03T07:50:44.023Z,99454.28
2018-12-03T07:53:12.503Z,99449.92
2018-12-03T07:55:40.982Z,99453.06
2018-12-03T07:58:12.747Z,99455.91
2018-12-03T08:00:46.128Z,99456.57
2018-12-03T08:03:14.871Z,99463.56
2018-12-03T08:05:43.783Z,99461.09
2018-12-03T08:08:12.303Z,99459.44
2018-12-03T08:10:42.392Z,99462.97
2018-12-03T08:13:12.432Z,99466.94
2018-12-03T08:15:40.886Z,99468.21
2018-12-03T08:18:12.345Z,99467.23
2018-12-03T08:21:11.783Z,99466.78
2018-12-03T08:23:54.061Z,99458.54
2018-12-03T08:26:22.511Z,99464.44
2018-12-03T08:28:51.056Z,99467.69
2018-12-03T08:31:19.485Z,99467.36
2018-12-03T08:33:48.549Z,99457.31
2018-12-03T08:36:17.114Z,99467.97
2018-12-03T08:38:45.670Z,99467.31
2018-12-03T08:41:14.714Z,99471.35
2018-12-03T08:43:43.170Z,99470.98
2018-12-03T08:46:12.289Z,99478.80
2018-12-03T08:48:42.126Z,99475.71
2018-12-03T08:51:11.655Z,99485.63
2018-12-03T08:53:40.187Z,99482.94
2018-12-03T08:56:08.631Z,99485.02
2018-12-03T08:58:37.053Z,99486.58
2018-12-03T09:01:11.804Z,99485.55
2018-12-03T09:03:41.244Z,99492.80
2018-12-03T09:06:12.073Z,99494.95
2018-12-03T09:08:40.671Z,99490.67
2018-12-03T09:11:11.571Z,99493.31
2018-12-03T09:13:40.336Z,99498.20
2018-12-03T09:16:08.743Z,99500.44
2018-12-03T09:18:39.603Z,99505.75
2018-12-03T09:21:14.156Z,99506.41
2018-12-03T09:23:43.931Z,99503.78
2018-12-03T09:26:13.040Z,99511.60
2018-12-03T09:28:41.568Z,99515.96
2018-12-03T09:31:10.127Z,99509.58
2018-12-03T09:33:38.570Z,99500.19
2018-12-03T09:36:07.347Z,99504.72
2018-12-03T09:38:47.259Z,99503.89
2018-12-03T09:41:15.856Z,99504.42
2018-12-03T09:43:44.414Z,99503.06
2018-12-03T09:46:12.921Z,99513.48
2018-12-03T09:48:42.221Z,99507.61
2018-12-03T09:51:10.808Z,99508.23
2018-12-03T09:53:39.307Z,99512.19
2018-12-03T09:56:07.731Z,99510.25
2018-12-03T09:58:37.123Z,99513.75
2018-12-03T10:01:10.571Z,99495.75
2018-12-03T10:03:44.409Z,99513.99
2018-12-03T10:06:15.605Z,99500.61
2018-12-03T10:08:44.236Z,99503.49
2018-12-03T10:11:12.743Z,99492.05
2018-12-03T10:13:41.194Z,99494.39
2018-12-03T10:16:09.999Z,99495.22
2018-12-03T10:18:38.524Z,99487.19
2018-12-03T10:21:07.026Z,99496.37
2018-12-03T10:23:35.423Z,99500.12
2018-12-03T10:26:08.074Z,99491.02
2018-12-03T10:28:36.490Z,99488.70
2018-12-03T10:31:05.233Z,99491.77
2018-12-03T10:33:34.205Z,99489.66
2018-12-03T10:36:05.169Z,99492.95
2018-12-03T10:38:36.535Z,99490.27
2018-12-03T10:41:09.899Z,99488.70
2018-12-03T10:43:39.337Z,99488.92
2018-12-03T10:46:09.203Z,99491.02
2018-12-03T10:48:37.710Z,99487.56
2018-12-03T10:51:11.015Z,99487.94
2018-12-03T10:53:39.657Z,99486.16
2018-12-03T10:56:08.196Z,99483.36
2018-12-03T10:58:38.091Z,99483.52
2018-12-03T11:01:13.663Z,99489.91
2018-12-03T11:03:47.772Z,99482.78
2018-12-03T11:06:17.953Z,99490.64
2018-12-03T11:08:46.869Z,99493.12
2018-12-03T11:11:15.690Z,99494.02
2018-12-03T11:13:44.251Z,99489.37
2018-12-03T11:16:28.723Z,99494.56
2018-12-03T11:18:57.501Z,99486.94
2018-12-03T11:21:26.960Z,99489.36
2018-12-03T11:23:55.493Z,99496.86
2018-12-03T11:26:30.181Z,99490.03
2018-12-03T11:28:58.864Z,99487.55
2018-12-03T11:31:30.033Z,99482.66
2018-12-03T11:33:59.457Z,99494.97
2018-12-03T11:36:39.187Z,99484.38
2018-12-03T11:39:15.103Z,99490.48
2018-12-03T11:41:43.579Z,99494.89
2018-12-03T11:44:12.251Z,99482.61
2018-12-03T11:46:40.793Z,99484.88
2018-12-03T11:49:09.355Z,99491.88
2018-12-03T11:51:37.841Z,99483.10
2018-12-03T11:54:07.792Z,99485.78
2018-12-03T11:56:36.272Z,99479.64
2018-12-03T11:59:04.667Z,99481.25
2018-12-03T12:01:33.078Z,99472.23
2018-12-03T12:04:01.615Z,99470.58
2018-12-03T12:06:30.096Z,99467.53
2018-12-03T12:08:58.499Z,99475.15
2018-12-03T12:11:27.047Z,99476.47
2018-12-03T12:13:56.258Z,99475.03
2018-12-03T12:16:24.711Z,99481.05
2018-12-03T12:18:53.403Z,99471.57
2018-12-03T12:21:21.907Z,99484.66
2018-12-03T12:23:50.389Z,99477.45
2018-12-03T12:26:18.791Z,99476.17
2018-12-03T12:28:47.233Z,99478.48
2018-12-03T12:31:15.915Z,99482.03
2018-12-03T12:33:44.421Z,99477.45
2018-12-03T12:36:12.978Z,99482.40
2018-12-03T12:38:41.460Z,99480.46
2018-12-03T12:41:09.911Z,99487.22
2018-12-03T12:43:38.449Z,99482.94
2018-12-03T12:46:10.163Z,99488.50
2018-12-03T12:48:38.688Z,99480.34
2018-12-03T12:51:07.213Z,99484.39
2018-12-03T12:53:35.736Z,99483.56
2018-12-03T12:56:04.329Z,99481.17
2018-12-03T12:58:33.259Z,99480.27
2018-12-03T13:01:01.671Z,99484.34
2018-12-03T13:03:30.189Z,99481.42
2018-12-03T13:05:58.652Z,99487.11
2018-12-03T13:08:27.127Z,99487.19
2018-12-03T13:10:55.596Z,99474.22
2018-12-03T13:13:24.018Z,99484.27
2018-12-03T13:15:52.475Z,99490.94
2018-12-03T13:18:20.938Z,99477.27
2018-12-03T13:20:49.888Z,99475.63
2018-12-03T13:23:18.551Z,99479.16
2018-12-03T13:25:47.087Z,99486.45
2018-12-03T13:28:16.032Z,99476.92
2018-12-03T13:30:44.473Z,99489.37
2018-12-03T13:33:13.610Z,99481.71
2018-12-03T13:35:42.216Z,99478.66
2018-12-03T13:38:10.885Z,99476.34
2018-12-03T13:40:40.067Z,99486.40
2018-12-03T13:43:08.664Z,99488.58
2018-12-03T13:45:37.888Z,99482.33
2018-12-03T13:48:06.839Z,99487.22
2018-12-03T13:50:35.263Z,99481.98
2018-12-03T13:53:03.731Z,99483.37
2018-12-03T13:55:32.302Z,99487.78
2018-12-03T13:58:01.163Z,99483.58
2018-12-03T14:00:29.983Z,99482.02
2018-12-03T14:03:04.194Z,99488.84
2018-12-03T14:05:35.671Z,99483.90
2018-12-03T14:08:26.567Z,99465.98
2018-12-03T14:11:08.299Z,99480.25
2018-12-03T14:14:52.269Z,99477.46
2018-12-03T14:17:29.642Z,99470.34
2018-12-03T14:20:00.251Z,99476.13
2018-12-03T14:22:33.787Z,99482.42
2018-12-03T14:25:02.350Z,99482.29
2018-12-03T14:27:30.747Z,99483.94
2018-12-03T14:29:59.224Z,99477.56
2018-12-03T14:32:27.995Z,99479.28
2018-12-03T14:34:57.576Z,99479.83
2018-12-03T14:37:26.127Z,99488.29
2018-12-03T14:39:54.672Z,99488.38
2018-12-03T14:42:23.523Z,99495.36
2018-12-03T14:44:52.151Z,99503.69
2018-12-03T14:47:20.643Z,99498.71
2018-12-03T14:49:49.725Z,99495.03
2018-12-03T14:52:18.575Z,99499.77
2018-12-03T14:54:47.114Z,99504.80
2018-12-03T14:57:16.417Z,99506.89
2018-12-03T14:59:44.965Z,99510.12
2018-12-03T15:02:13.496Z,99510.72
2018-12-03T15:04:42.965Z,99514.31
2018-12-03T15:07:11.605Z,99513.64
2018-12-03T15:09:40.293Z,99515.97
2018-12-03T15:12:08.759Z,99516.72
2018-12-03T15:14:38.096Z,99516.42
2018-12-03T15:17:06.595Z,99518.97
2018-12-03T15:19:35.127Z,99526.02
2018-12-03T15:22:03.634Z,99530.22
2018-12-03T15:24:34.035Z,99530.44
2018-12-03T15:27:02.499Z,99531.86
2018-12-03T15:29:31.000Z,99527.87
2018-12-03T15:32:00.256Z,99526.14
2018-12-03T15:34:28.736Z,99530.40
2018-12-03T15:36:57.462Z,99528.96
2018-12-03T15:39:26.390Z,99545.30
2018-12-03T15:41:54.994Z,99540.05
2018-12-03T15:44:24.269Z,99540.50
2018-12-03T15:46:52.779Z,99541.88
2018-12-03T15:49:21.327Z,99547.55
2018-12-03T15:51:49.952Z,99541.63
2018-12-03T15:54:18.451Z,99543.49
2018-12-03T15:56:46.995Z,99554.74
2018-12-03T15:59:15.469Z,99542.45
2018-12-03T16:01:43.928Z,99532.85
2018-12-03T16:04:12.379Z,99541.32
2018-12-03T16:06:41.323Z,99539.33
2018-12-03T16:09:11.618Z,99537.68
2018-12-03T16:11:40.517Z,99547.56
2018-12-03T16:14:09.041Z,99553.63
2018-12-03T16:16:37.560Z,99547.02
2018-12-03T16:19:06.085Z,99552.50
2018-12-03T16:21:34.523Z,99545.76
2018-12-03T16:24:02.991Z,99542.28
2018-12-03T16:26:32.271Z,99554.67
2018-12-03T16:29:02.026Z,99552.13
2018-12-03T16:31:30.523Z,99551.87
2018-12-03T16:33:59.850Z,99558.69
2018-12-03T16:36:28.303Z,99561.03
2018-12-03T16:38:56.789Z,99562.75
2018-12-03T16:41:25.975Z,99578.78
2018-12-03T16:43:54.359Z,99577.45
2018-12-03T16:46:23.382Z,99574.76
2018-12-03T16:48:52.049Z,99574.37
2018-12-03T16:51:20.505Z,99579.03
2018-12-03T16:53:49.111Z,99581.20
2018-12-03T16:56:17.599Z,99581.78
2018-12-03T16:58:46.488Z,99589.87
2018-12-03T17:01:14.987Z,99599.34
2018-12-03T17:03:43.528Z,99596.58
2018-12-03T17:06:11.954Z,99596.98
2018-12-03T17:08:40.387Z,99604.81
2018-12-03T17:11:09.153Z,99606.22
2018-12-03T17:13:37.683Z,99604.53
2018-12-03T17:16:06.174Z,99610.18
2018-12-03T17:18:34.668Z,99606.73
2018-12-03T17:21:09.296Z,99609.45
2018-12-03T17:24:16.201Z,99610.80
2018-12-03T17:26:45.049Z,99610.18
2018-12-03T17:29:13.649Z,99617.51
2018-12-03T17:31:42.092Z,99609.42
2018-12-03T17:34:10.575Z,99610.83
2018-12-03T17:36:39.182Z,99602.88
2018-12-03T17:39:08.687Z,99607.08
2018-12-03T17:41:37.189Z,99607.39
2018-12-03T17:44:06.802Z,99612.69
2018-12-03T17:46:35.406Z,99622.53
2018-12-03T17:49:03.813Z,99622.94
2018-12-03T19:04:54.521Z,99647.69
2018-12-03T19:07:22.732Z,99652.27
2018-12-03T19:09:51.000Z,99655.95
2018-12-03T19:12:19.309Z,99646.73
2018-12-03T19:14:47.598Z,99650.55
2018-12-03T19:17:15.817Z,99653.66
2018-12-03T19:19:43.996Z,99651.31
2018-12-03T19:22:12.301Z,99649.72
2018-12-03T19:24:40.553Z,99649.56
2018-12-03T19:27:08.869Z,99655.86
2018-12-03T19:29:38.948Z,99653.38
2018-12-03T19:46:28.263Z,99679.19
2018-12-03T19:48:56.469Z,99677.98
2018-12-03T19:51:24.721Z,99679.81
2018-12-03T19:53:54.344Z,99690.19
2018-12-03T19:56:22.649Z,99688.34
2018-12-03T19:58:52.524Z,99683.64
2018-12-03T20:01:20.941Z,99694.20
2018-12-03T20:03:49.112Z,99695.41
2018-12-03T20:06:17.389Z,99697.06
2018-12-03T20:08:45.628Z,99701.71
2018-12-03T20:11:13.908Z,99706.48
2018-12-03T20:13:42.217Z,99711.63
2018-12-03T20:16:10.877Z,99716.12
2018-12-03T20:18:39.589Z,99728.97
2018-12-03T20:21:11.717Z,99729.53
2018-12-03T20:23:46.068Z,99736.06
2018-12-03T20:26:24.668Z,99736.51
2018-12-03T20:29:35.189Z,99743.43
2018-12-03T20:33:17.880Z,99744.50
2018-12-03T20:35:53.737Z,99747.27
2018-12-03T20:39:02.544Z,99755.02
2018-12-03T20:41:34.857Z,99754.69
2018-12-03T20:44:11.543Z,99756.63
2018-12-03T20:46:47.957Z,99759.45
2018-12-03T20:49:57.584Z,99751.06
2018-12-03T20:52:28.565Z,99751.91
2018-12-03T20:54:59.977Z,99755.34
2018-12-03T20:57:28.298Z,99763.59
2018-12-03T20:59:56.574Z,99764.04
2018-12-03T21:02:25.862Z,99770.95
2018-12-03T21:04:54.097Z,99769.81
2018-12-03T21:07:22.402Z,99771.42
2018-12-03T21:09:50.710Z,99777.61
2018-12-03T21:12:18.896Z,99775.84
2018-12-03T21:14:47.437Z,99776.34
2018-12-03T21:17:15.969Z,99775.29
2018-12-03T21:19:46.108Z,99786.45
2018-12-03T21:22:14.316Z,99772.08
2018-12-03T21:24:42.591Z,99772.80
2018-12-03T21:27:11.101Z,99778.05
2018-12-03T21:29:39.352Z,99782.58
2018-12-03T21:32:07.549Z,99784.52
2018-12-03T21:34:35.828Z,99787.94
2018-12-03T21:37:04.132Z,99786.22
2018-12-03T21:39:32.317Z,99789.59
2018-12-03T21:42:00.511Z,99788.37
2018-12-03T21:44:28.784Z,99788.16
2018-12-03T21:46:57.000Z,99788.92
2018-12-03T21:49:25.296Z,99795.87
2018-12-03T21:51:53.594Z,99796.92
2018-12-03T21:54:21.777Z,99808.69
2018-12-03T21:56:49.988Z,99812.70
2018-12-03T21:59:18.541Z,99817.45
2018-12-03T22:01:46.729Z,99814.52
2018-12-03T22:04:14.955Z,99817.11
2018-12-03T22:06:43.145Z,99812.63
2018-12-03T22:09:11.401Z,99825.52
2018-12-03T22:11:39.650Z,99819.22
2018-12-03T22:14:07.956Z,99817.73
2018-12-03T22:16:36.513Z,99822.77
2018-12-03T22:19:04.781Z,99823.86
2018-12-03T22:21:33.089Z,99823.08
2018-12-03T22:24:01.353Z,99824.06
2018-12-03T22:26:29.653Z,99831.29
2018-12-03T22:28:57.945Z,99827.77
2018-12-03T22:31:26.184Z,99838.86
2018-12-03T22:33:54.373Z,99841.55
2018-12-03T22:36:22.761Z,99844.48
2018-12-03T22:38:50.969Z,99839.89
2018-12-03T22:41:19.186Z,99854.95
2018-12-03T22:43:47.592Z,99860.38
2018-12-03T22:46:15.761Z,99867.89
2018-12-03T22:48:44.105Z,99855.13
2018-12-03T22:51:12.416Z,99864.98
2018-12-03T22:53:40.744Z,99868.30
2018-12-03T22:56:09.088Z,99871.87
2018-12-03T22:58:37.352Z,99878.27
2018-12-03T23:01:08.025Z,99884.52
2018-12-03T23:03:36.253Z,99901.56
2018-12-03T23:06:04.476Z,99902.88
2018-12-03T23:08:32.921Z,99919.48
2018-12-03T23:11:01.165Z,99918.61
2018-12-03T23:13:30.317Z,99930.91
2018-12-03T23:15:58.580Z,99938.74
2018-12-03T23:18:26.765Z,99941.81
2018-12-03T23:20:54.992Z,99946.55
2018-12-03T23:23:23.308Z,99946.41
2018-12-03T23:25:53.278Z,99954.95
2018-12-03T23:28:21.496Z,99960.72
2018-12-03T23:30:49.724Z,99968.73
2018-12-03T23:33:17.932Z,99968.42
2018-12-03T23:35:46.125Z,99980.52
2018-12-03T23:38:14.335Z,99996.14
2018-12-03T23:40:42.554Z,99989.61
2018-12-03T23:43:10.861Z,99997.41
2018-12-03T23:45:39.121Z,100007.69
2018-12-03T23:48:07.692Z,99997.77
2018-12-03T23:50:35.953Z,100005.51
2018-12-03T23:53:04.272Z,100007.70
2018-12-03T23:55:32.512Z,100011.80
2018-12-03T23:58:00.688Z,100017.14
